Stations météo

réclame
Mon MeteoGroup
London/Gatwick, Grande-Bretagne (3776): Température de l'air & dewpoint: 09.12.2017 19:00:00 - 15.12.2017 19:00:00 (GMT)London/Gatwick, Grande-Bretagne (3776): Vitesse du vent: 09.12.2017 19:00:00 - 15.12.2017 19:00:00 (GMT)London/Gatwick, Grande-Bretagne (3776): Direction du vent: 09.12.2017 19:00:00 - 15.12.2017 19:00:00 (GMT)London/Gatwick, Grande-Bretagne (3776): visibility: 09.12.2017 19:00:00 - 15.12.2017 19:00:00 (GMT)
Date & Time tt [°C] td [°C] ff [km/h] ff [knt] dd vv [km]
15.12.2017 19:00:00 4,0 3,0 18 10 NW 6
15.12.2017 18:00:00 5,0 2,0 22 12 NW 10
15.12.2017 17:00:00 5,0 1,0 16 9 NW 10
15.12.2017 16:00:00 5,0 1,0 16 9 NW 10
15.12.2017 15:00:00 5,0 2,0 22 12 NW 10
15.12.2017 14:00:00 6,0 2,0 22 12 NNW 10
15.12.2017 13:00:00 5,0 2,0 22 12 NNW 10
15.12.2017 12:00:00 4,0 2,0 18 10 NW 10
15.12.2017 11:00:00 4,0 2,0 22 12 NW 10
15.12.2017 10:00:00 3,0 2,0 18 10 NNW 10
15.12.2017 09:00:00 3,0 2,0 16 9 NNW 9
15.12.2017 08:00:00 4,0 3,0 18 10 NNW 9
15.12.2017 07:00:00 3,0 2,0 4 2 - 10
15.12.2017 06:00:00 3,0 2,0 8 4 SSW 10
15.12.2017 05:00:00 3,0 2,0 15 8 SW 10
15.12.2017 04:00:00 3,0 1,0 16 9 WSW 10
15.12.2017 03:00:00 2,0 1,0 16 9 SW 10
15.12.2017 02:00:00 2,0 1,0 11 6 SW 10
15.12.2017 01:00:00 2,0 1,0 13 7 W 10
15.12.2017 00:00:00 2,0 1,0 15 8 W 10
14.12.2017 23:00:00 2,0 1,0 5 3 SSW 10
14.12.2017 22:00:00 2,0 0,0 4 2 SSW 10
14.12.2017 21:00:00 2,0 1,0 5 3 SSW 10
14.12.2017 20:00:00 2,0 0,0 4 2 - 10
14.12.2017 19:00:00 2,0 1,0 11 6 SW 10
14.12.2017 18:00:00 3,0 1,0 15 8 SW 10
14.12.2017 17:00:00 3,0 1,0 13 7 WSW 10
14.12.2017 16:00:00 4,0 1,0 9 5 SW 10
14.12.2017 15:00:00 5,0 2,0 16 9 WSW 10
14.12.2017 14:00:00 6,0 2,0 16 9 SW 10
14.12.2017 13:00:00 5,0 2,0 16 9 WSW 10
14.12.2017 12:00:00 6,0 2,0 13 7 SW 10
14.12.2017 11:00:00 5,0 2,0 16 9 WSW 10
14.12.2017 10:00:00 5,0 2,0 18 10 WSW 10
14.12.2017 09:00:00 4,0 1,0 18 10 WSW 10
14.12.2017 08:00:00 4,0 1,0 16 9 SW 10
14.12.2017 07:00:00 4,0 1,0 18 10 SW 10
14.12.2017 06:00:00 4,0 1,0 24 13 WSW 10
14.12.2017 05:00:00 5,0 1,0 26 14 WSW 10
14.12.2017 04:00:00 4,0 1,0 22 12 WSW 10
14.12.2017 03:00:00 4,0 1,0 24 13 WSW 10
14.12.2017 02:00:00 4,0 0,0 29 16 W 10
14.12.2017 01:00:00 3,0 0,0 26 14 WSW 10
14.12.2017 00:00:00 3,0 0,0 31 17 W 10
13.12.2017 23:00:00 4,0 2,0 35 19 W 10
13.12.2017 22:00:00 5,0 3,0 24 13 WSW 10
13.12.2017 21:00:00 5,0 3,0 22 12 SW 10
13.12.2017 20:00:00 5,0 2,0 13 7 SW 10
13.12.2017 19:00:00 4,0 2,0 13 7 WSW 10
13.12.2017 18:00:00 4,0 2,0 18 10 W 10
13.12.2017 17:00:00 6,0 3,0 26 14 WNW 10
13.12.2017 16:00:00 8,0 6,0 39 21 W 10
13.12.2017 15:00:00 10,0 7,0 22 12 SW 10
13.12.2017 14:00:00 9,0 8,0 21 11 SW 10
13.12.2017 13:00:00 9,0 7,0 16 9 SW 10
13.12.2017 12:00:00 8,0 7,0 15 8 SSW 10
13.12.2017 11:00:00 7,0 6,0 11 6 SSW 10
13.12.2017 10:00:00 7,0 6,0 13 7 SW 10
13.12.2017 09:00:00 6,0 5,0 16 9 SW 8
13.12.2017 08:00:00 6,0 5,0 11 6 SW 10
13.12.2017 07:00:00 6,0 5,0 11 6 WSW 10
13.12.2017 06:00:00 7,0 5,0 15 8 W 10
13.12.2017 05:00:00 8,0 7,0 21 11 WSW 10
13.12.2017 04:00:00 9,0 8,0 18 10 SW 5
13.12.2017 03:00:00 8,0 8,0 24 13 SSW 5
13.12.2017 02:00:00 8,0 7,0 22 12 SSW 4,9
13.12.2017 01:00:00 7,0 7,0 24 13 SSW 5
13.12.2017 00:00:00 7,0 6,0 15 8 SSW 10
12.12.2017 23:00:00 7,0 5,0 13 7 SSW 10
12.12.2017 22:00:00 6,0 4,0 9 5 S 10
12.12.2017 21:00:00 4,0 2,0 5 3 - 10
12.12.2017 20:00:00 3,0 2,0 5 3 S 9
12.12.2017 19:00:00 2,0 0,0 5 3 - 10
12.12.2017 18:00:00 2,0 0,0 5 3 S 10
12.12.2017 17:00:00 2,0 0,0 5 3 S 10
12.12.2017 16:00:00 2,0 0,0 8 4 S 10
12.12.2017 15:00:00 3,0 0,0 8 4 SW 10
12.12.2017 14:00:00 3,0 0,0 9 5 SSW 10
12.12.2017 13:00:00 3,0 0,0 9 5 SW 10
12.12.2017 12:00:00 3,0 0,0 8 4 SW 10
12.12.2017 11:00:00 1,0 -1,0 8 4 SW 10
12.12.2017 10:00:00 0,0 -2,0 2 1 - 9
12.12.2017 09:00:00 -3,0 -4,0 2 1 - 9
12.12.2017 08:00:00 -3,0 -4,0 8 4 SW 8
12.12.2017 07:00:00 -3,0 -5,0 11 6 W 10
12.12.2017 06:00:00 -3,0 -4,0 4 2 - 8
12.12.2017 05:00:00 -2,0 -3,0 5 3 - 10
12.12.2017 04:00:00 -3,0 -4,0 5 3 W 10
12.12.2017 03:00:00 -1,0 -3,0 9 5 WSW 10
12.12.2017 02:00:00 -2,0 -3,0 5 3 - 10
12.12.2017 01:00:00 -1,0 -3,0 13 7 WNW 10
12.12.2017 00:00:00 0,0 -3,0 13 7 WNW 10
11.12.2017 23:00:00 0,0 -3,0 21 11 WNW 10
11.12.2017 22:00:00 0,0 -3,0 18 10 NW 10
11.12.2017 21:00:00 1,0 -2,0 21 11 NW 10
11.12.2017 20:00:00 1,0 -1,0 18 10 NW 10
11.12.2017 19:00:00 1,0 -1,0 16 9 NW 10
11.12.2017 18:00:00 2,0 -1,0 18 10 NNW 10
11.12.2017 17:00:00 2,0 0,0 24 13 NNW 10
11.12.2017 16:00:00 3,0 1,0 31 17 N 10
11.12.2017 15:00:00 3,0 2,0 24 13 N 10
11.12.2017 14:00:00 2,0 1,0 28 15 N 6
11.12.2017 13:00:00 2,0 1,0 29 16 N 7
11.12.2017 12:00:00 2,0 1,0 28 15 N 10
11.12.2017 11:00:00 2,0 1,0 24 13 NNE 7
11.12.2017 10:00:00 2,0 1,0 26 14 NNE 5
11.12.2017 09:00:00 2,0 1,0 24 13 NNE 5
11.12.2017 08:00:00 2,0 1,0 21 11 NNE 5
11.12.2017 07:00:00 3,0 2,0 26 14 NNE 6
11.12.2017 06:00:00 3,0 2,0 21 11 NE 7
11.12.2017 05:00:00 - - - - - -
11.12.2017 04:00:00 2,0 1,0 21 11 NE 9
11.12.2017 03:00:00 1,0 1,0 15 8 ENE 6
11.12.2017 02:00:00 1,0 1,0 15 8 ENE 7
11.12.2017 01:00:00 1,0 1,0 13 7 ENE 6
11.12.2017 00:00:00 1,0 1,0 11 6 E 7
10.12.2017 23:00:00 1,0 0,0 9 5 E 8
10.12.2017 22:00:00 1,0 0,0 11 6 ENE 8
10.12.2017 21:00:00 1,0 0,0 9 5 ENE 8
10.12.2017 20:00:00 1,0 0,0 8 4 NNW 10
10.12.2017 19:00:00 1,0 0,0 8 4 NW 10
10.12.2017 18:00:00 2,0 1,0 9 5 NW 10
10.12.2017 17:00:00 2,0 1,0 11 6 W 10
10.12.2017 16:00:00 2,0 1,0 15 8 WNW 10
10.12.2017 15:00:00 2,0 1,0 18 10 WNW 10
10.12.2017 14:00:00 3,0 1,0 34 18 WNW 10
10.12.2017 13:00:00 5,0 3,0 48 26 W 10
10.12.2017 12:00:00 7,0 5,0 37 20 WSW 6
10.12.2017 11:00:00 6,0 5,0 24 13 W 10
10.12.2017 10:00:00 3,0 3,0 11 6 WNW 5
10.12.2017 09:00:00 3,0 2,0 9 5 NE 9
10.12.2017 08:00:00 3,0 2,0 22 12 E 9
10.12.2017 07:00:00 4,0 3,0 18 10 SE 7
10.12.2017 06:00:00 4,0 3,0 21 11 SE 8
10.12.2017 05:00:00 1,0 1,0 11 6 E 6
10.12.2017 04:00:00 1,0 0,0 13 7 E 5
10.12.2017 03:00:00 0,0 0,0 9 5 ENE 7
10.12.2017 02:00:00 0,0 -1,0 8 4 ENE 9
10.12.2017 01:00:00 -1,0 -2,0 8 4 E 9
10.12.2017 00:00:00 -1,0 -3,0 8 4 ENE 10
09.12.2017 23:00:00 0,0 -1,0 4 2 - 10
09.12.2017 22:00:00 -1,0 -2,0 5 3 E 10
09.12.2017 21:00:00 1,0 -2,0 5 3 SSW 10
09.12.2017 20:00:00 2,0 -1,0 8 4 SSW 10
09.12.2017 19:00:00 2,0 -1,0 5 3 WSW 10

tt = Température de l'air
td = dewpoint
ff = Vitesse du vent
dd = Direction du vent
vv = visibility

stations d'obs. à proximité